Terminal Aerodrome Forecast
Issued by NWS

Home | Current Version | Previous Version | Text Only | Print | Product List | Glossary On
Versions: 1 2 3 4 5 6 7 8 9 10 11 12 13 14 15 16
000
FTUS43 KAPX 061739
TAFMBL
TAF
KMBL 061739Z 0618/0718 20010G20KT P6SM SCT040 BKN250
     FM062100 21007KT P6SM VCSH OVC150
     FM070000 22007KT 4SM SHRA BR SCT025 OVC035 WS020/21032KT
     FM070700 31010KT 6SM -SHRA BR BKN009 OVC020
     FM071300 34012G16KT P6SM BKN025
     FM071600 34014G24KT P6SM FEW035
      AMD LTD TO CLD VIS AND WIND=

USA.gov is the U.S. government's official web portal to all federal, state and local government web resources and services.